Time;durP1;ratioP1;P1;durP2;ratioP2;P2;SDS_P1;SDS_P2;PMS_P1;PMS_P2;Temp;Humidity;BMP_temperature;BMP_pressure;BME280_temperature;BME280_humidity;BME280_pressure;Samples;Min_cycle;Max_cycle;Signal;HPM_P1;HPM_P2
2021/05/31 00:01:15;;;;;;;29.10;27.00;;;11.80;67.10;;;;;;5020568;28;20456;-79
2021/05/31 00:03:41;;;;;;;28.60;26.90;;;11.80;66.50;;;;;;5026437;28;21008;-80
2021/05/31 00:06:09;;;;;;;28.10;26.40;;;11.70;66.60;;;;;;5022783;28;20460;-79
2021/05/31 00:08:35;;;;;;;27.63;25.97;;;11.70;67.00;;;;;;5028793;28;20583;-80
2021/05/31 00:11:02;;;;;;;28.33;26.63;;;11.70;66.90;;;;;;5027999;28;21042;-81
2021/05/31 00:13:29;;;;;;;27.80;26.10;;;11.60;66.90;;;;;;5014835;28;21096;-83
2021/05/31 00:15:56;;;;;;;28.03;26.30;;;11.60;66.50;;;;;;5014039;28;20917;-79
2021/05/31 00:18:23;;;;;;;27.57;26.00;;;11.60;66.70;;;;;;5023048;28;20456;-78
2021/05/31 00:20:50;;;;;;;28.03;26.33;;;11.50;66.90;;;;;;5017244;28;20474;-79
2021/05/31 00:23:18;;;;;;;27.90;26.02;;;11.60;67.20;;;;;;5024022;28;21001;-79
2021/05/31 00:25:45;;;;;;;27.40;25.80;;;11.50;67.20;;;;;;5016883;28;20685;-80
2021/05/31 00:28:13;;;;;;;27.77;26.00;;;11.50;66.70;;;;;;5020542;28;20483;-77
2021/05/31 00:30:39;;;;;;;26.50;25.00;;;11.50;66.60;;;;;;5021649;28;20521;-79
2021/05/31 00:33:06;;;;;;;31.87;29.70;;;11.50;64.80;;;;;;5022816;28;20491;-76
2021/05/31 00:35:33;;;;;;;26.77;25.33;;;11.60;64.30;;;;;;5018427;28;20465;-77
2021/05/31 00:37:59;;;;;;;26.47;24.97;;;11.70;63.50;;;;;;5022790;28;20194;-77
2021/05/31 00:40:27;;;;;;;27.73;26.03;;;11.80;63.40;;;;;;5020511;28;20460;-76
2021/05/31 00:42:55;;;;;;;27.67;25.97;;;11.80;64.30;;;;;;5018881;28;21253;-77
2021/05/31 00:45:22;;;;;;;27.60;25.80;;;11.80;65.70;;;;;;5020258;28;20579;-76
2021/05/31 00:47:49;;;;;;;26.80;25.30;;;11.80;66.20;;;;;;5015962;28;21306;-76
2021/05/31 00:50:16;;;;;;;27.43;25.63;;;11.70;66.90;;;;;;5022029;28;20456;-78
2021/05/31 00:52:43;;;;;;;27.33;25.73;;;11.60;66.70;;;;;;5023927;28;20590;-77
2021/05/31 00:55:11;;;;;;;28.27;26.10;;;11.60;66.70;;;;;;5020132;28;20464;-76
2021/05/31 00:57:38;;;;;;;27.10;25.70;;;11.60;66.60;;;;;;5020855;28;20460;-77
2021/05/31 01:00:08;;;;;;;25.95;24.52;;;11.50;67.10;;;;;;5016745;28;20233;-76
2021/05/31 01:02:34;;;;;;;26.27;24.77;;;11.40;67.20;;;;;;5019401;28;20683;-77
2021/05/31 01:05:01;;;;;;;26.70;25.00;;;11.50;67.10;;;;;;5021927;28;20200;-76
2021/05/31 01:07:35;;;;;;;28.00;26.23;;;11.40;67.30;;;;;;5021718;28;20286;-77
2021/05/31 01:10:12;;;;;;;27.20;25.70;;;11.40;67.10;;;;;;5027892;28;20720;-77
2021/05/31 01:12:45;;;;;;;27.33;25.67;;;11.40;67.10;;;;;;5020697;28;20840;-76
2021/05/31 01:15:16;;;;;;;27.67;25.98;;;11.20;67.80;;;;;;5020208;28;20202;-76
2021/05/31 01:17:50;;;;;;;27.73;26.13;;;11.10;68.20;;;;;;5021427;28;20193;-77
2021/05/31 01:20:47;;;;;;;28.42;26.83;;;11.00;68.50;;;;;;5023196;28;20196;-76
2021/05/31 01:23:16;;;;;;;28.23;26.63;;;11.00;68.40;;;;;;5024136;28;20221;-76
2021/05/31 01:25:52;;;;;;;28.38;26.70;;;10.90;68.80;;;;;;5017052;28;20572;-76
2021/05/31 01:28:49;;;;;;;27.83;26.13;;;10.80;69.40;;;;;;5019693;28;20221;-76
2021/05/31 01:31:20;;;;;;;27.33;25.83;;;10.70;69.60;;;;;;5012197;28;20204;-76
2021/05/31 01:33:51;;;;;;;28.67;26.98;;;10.60;69.70;;;;;;5020855;28;20256;-76
2021/05/31 01:36:20;;;;;;;28.05;26.55;;;10.50;70.10;;;;;;5020126;28;20210;-76
2021/05/31 01:38:49;;;;;;;29.15;27.45;;;10.40;70.80;;;;;;5026109;28;20193;-77
2021/05/31 01:41:16;;;;;;;28.17;26.67;;;10.30;70.90;;;;;;5024402;28;20211;-76
2021/05/31 01:43:46;;;;;;;28.30;26.80;;;10.30;71.10;;;;;;5023141;28;20218;-76
2021/05/31 01:46:14;;;;;;;28.27;26.58;;;10.30;71.00;;;;;;5013508;28;20240;-76
2021/05/31 01:48:41;;;;;;;27.38;25.88;;;10.30;70.70;;;;;;5021721;28;20224;-76
2021/05/31 01:51:08;;;;;;;28.30;26.67;;;10.20;71.20;;;;;;5017525;28;20205;-76
2021/05/31 01:53:35;;;;;;;27.70;26.13;;;10.20;71.30;;;;;;5020710;28;20666;-76
2021/05/31 01:56:03;;;;;;;28.02;26.55;;;10.20;71.30;;;;;;5016790;28;20789;-76
2021/05/31 01:58:29;;;;;;;27.15;25.65;;;10.20;71.30;;;;;;5017348;28;20552;-77
2021/05/31 02:00:58;;;;;;;27.92;26.38;;;10.10;71.50;;;;;;5025139;28;20211;-76
2021/05/31 02:03:25;;;;;;;28.92;27.23;;;10.10;71.60;;;;;;5025818;28;20225;-76
2021/05/31 02:05:51;;;;;;;28.02;26.25;;;10.10;71.20;;;;;;5022334;28;20235;-77
2021/05/31 02:08:17;;;;;;;27.52;25.88;;;10.00;71.60;;;;;;5023199;28;20231;-76
2021/05/31 02:10:47;;;;;;;27.63;25.92;;;10.00;71.50;;;;;;5020743;28;20201;-76
2021/05/31 02:13:15;;;;;;;27.70;26.10;;;10.10;71.50;;;;;;5025923;28;20220;-76
2021/05/31 02:15:48;;;;;;;27.42;25.92;;;10.00;72.00;;;;;;5015317;28;20201;-77
2021/05/31 02:18:23;;;;;;;28.88;27.05;;;9.90;72.10;;;;;;5023714;28;20577;-76
2021/05/31 02:20:52;;;;;;;27.45;25.85;;;9.90;72.20;;;;;;5021319;28;20679;-76
2021/05/31 02:23:20;;;;;;;29.60;27.85;;;9.90;72.00;;;;;;5025809;28;20217;-76
2021/05/31 02:25:49;;;;;;;29.38;27.52;;;9.80;72.30;;;;;;5013271;28;20717;-76
2021/05/31 02:28:16;;;;;;;27.90;26.23;;;9.70;72.80;;;;;;5016972;28;20316;-77
2021/05/31 02:30:43;;;;;;;28.40;26.80;;;9.70;73.10;;;;;;5018204;28;20214;-77
2021/05/31 02:33:10;;;;;;;27.70;26.20;;;9.60;73.20;;;;;;5024476;28;20220;-76
2021/05/31 02:35:39;;;;;;;28.27;26.58;;;9.60;73.20;;;;;;5019218;28;20205;-76
2021/05/31 02:38:07;;;;;;;29.00;27.08;;;9.60;73.40;;;;;;5014660;28;20644;-76
2021/05/31 02:40:34;;;;;;;27.98;26.27;;;9.60;73.60;;;;;;5022573;28;20288;-76
2021/05/31 02:43:03;;;;;;;29.33;27.63;;;9.60;73.10;;;;;;5026987;28;20221;-76
2021/05/31 02:45:30;;;;;;;27.67;25.88;;;9.60;73.20;;;;;;5022887;28;20205;-76
2021/05/31 02:47:58;;;;;;;28.42;26.73;;;9.50;73.40;;;;;;5022946;28;20221;-77
2021/05/31 02:50:27;;;;;;;27.27;25.75;;;9.40;73.80;;;;;;5023260;28;20328;-76
2021/05/31 02:52:55;;;;;;;27.35;25.75;;;9.40;73.80;;;;;;5024639;28;20565;-76
2021/05/31 02:55:23;;;;;;;27.05;25.45;;;9.40;74.10;;;;;;5022161;28;20197;-76
2021/05/31 02:57:50;;;;;;;28.40;26.70;;;9.30;74.90;;;;;;5025596;28;20198;-76
2021/05/31 03:00:19;;;;;;;27.60;25.90;;;9.30;74.90;;;;;;5021653;28;20391;-76
2021/05/31 03:02:46;;;;;;;27.98;26.35;;;9.20;75.40;;;;;;5023929;28;20599;-76
2021/05/31 03:05:16;;;;;;;26.98;25.38;;;9.30;75.00;;;;;;5024019;28;20202;-76
2021/05/31 03:07:42;;;;;;;27.88;26.25;;;9.30;74.90;;;;;;5024052;28;20284;-76
2021/05/31 03:10:11;;;;;;;30.65;28.65;;;9.30;74.70;;;;;;5026718;28;20198;-76
2021/05/31 03:12:38;;;;;;;28.02;26.42;;;9.30;74.60;;;;;;5021504;28;20228;-76
2021/05/31 03:15:07;;;;;;;28.23;26.63;;;9.30;74.40;;;;;;5022902;28;20322;-75
2021/05/31 03:17:34;;;;;;;28.20;26.30;;;9.30;74.40;;;;;;5021483;28;20531;-76
2021/05/31 03:20:00;;;;;;;29.00;27.30;;;9.20;74.60;;;;;;5021859;28;20201;-75
2021/05/31 03:22:27;;;;;;;27.63;25.83;;;9.10;74.90;;;;;;5025369;28;20221;-76
2021/05/31 03:24:53;;;;;;;27.98;26.42;;;9.10;75.40;;;;;;5024645;28;20291;-76
2021/05/31 03:27:21;;;;;;;29.35;27.55;;;9.00;75.40;;;;;;5020519;28;20198;-77
2021/05/31 03:29:47;;;;;;;27.67;25.75;;;9.00;77.90;;;;;;5018644;28;20224;-75
2021/05/31 03:32:14;;;;;;;28.77;26.98;;;9.10;76.40;;;;;;5015552;28;20315;-75
2021/05/31 03:34:40;;;;;;;27.95;26.35;;;9.00;75.70;;;;;;5023362;28;20201;-75
2021/05/31 03:37:06;;;;;;;28.70;26.95;;;9.00;75.80;;;;;;5009550;28;20283;-76
2021/05/31 03:39:33;;;;;;;27.92;26.33;;;9.00;75.70;;;;;;5021778;28;20536;-75
2021/05/31 03:41:59;;;;;;;29.17;27.48;;;9.10;75.30;;;;;;5014480;28;20571;-75
2021/05/31 03:44:27;;;;;;;27.17;25.63;;;9.20;75.10;;;;;;5024544;28;20205;-76
2021/05/31 03:46:54;;;;;;;29.83;27.90;;;9.20;75.50;;;;;;5022955;28;20227;-76
2021/05/31 03:49:20;;;;;;;26.60;24.98;;;9.30;75.60;;;;;;5024507;28;20855;-76
2021/05/31 03:51:47;;;;;;;26.85;25.20;;;9.40;74.70;;;;;;5022314;28;20244;-76
2021/05/31 03:54:13;;;;;;;28.38;26.63;;;9.50;74.30;;;;;;5025527;28;20201;-76
2021/05/31 03:56:40;;;;;;;27.77;25.77;;;9.60;74.00;;;;;;5014186;28;20931;-76
2021/05/31 03:59:07;;;;;;;33.15;31.25;;;9.70;73.90;;;;;;5023683;28;20212;-77
2021/05/31 04:01:35;;;;;;;28.17;26.58;;;9.80;73.30;;;;;;5024059;28;20212;-78
2021/05/31 04:04:02;;;;;;;28.35;26.45;;;10.00;72.40;;;;;;5027290;28;20201;-78
2021/05/31 04:06:35;;;;;;;27.95;26.25;;;10.10;72.10;;;;;;5022414;28;20205;-78
2021/05/31 04:11:46;;;;;;;27.70;26.00;;;10.00;73.60;;;;;;5024842;28;20204;-80
2021/05/31 04:14:14;;;;;;;28.77;27.15;;;10.20;72.70;;;;;;5027344;28;20248;-77
2021/05/31 04:16:44;;;;;;;29.80;27.77;;;10.20;71.60;;;;;;5025482;28;20197;-79
2021/05/31 04:19:12;;;;;;;26.52;24.92;;;10.30;71.60;;;;;;5022252;28;20231;-74
2021/05/31 04:21:41;;;;;;;27.35;25.65;;;10.30;71.60;;;;;;5018049;28;20584;-74
2021/05/31 04:24:08;;;;;;;27.60;25.90;;;10.40;71.10;;;;;;5023584;28;20240;-78
2021/05/31 04:26:35;;;;;;;29.80;27.90;;;10.30;71.10;;;;;;5020416;28;20212;-79
2021/05/31 04:29:02;;;;;;;33.78;31.73;;;10.20;71.50;;;;;;5022591;28;20298;-79
2021/05/31 04:31:29;;;;;;;28.45;26.65;;;10.30;71.50;;;;;;5021435;28;20288;-82
2021/05/31 04:33:56;;;;;;;27.70;26.10;;;10.30;71.10;;;;;;5025571;28;20207;-79
2021/05/31 04:36:23;;;;;;;31.40;29.45;;;10.20;71.60;;;;;;5019511;28;20205;-81
2021/05/31 04:38:49;;;;;;;33.47;30.88;;;10.20;71.60;;;;;;5022235;28;20205;-75
2021/05/31 04:41:16;;;;;;;34.95;31.52;;;10.20;72.50;;;;;;5018618;28;20589;-76
2021/05/31 04:43:43;;;;;;;31.33;28.52;;;10.50;71.70;;;;;;5019088;28;20707;-77
2021/05/31 04:46:09;;;;;;;31.00;29.05;;;10.50;71.30;;;;;;5011271;28;20611;-77
2021/05/31 04:48:36;;;;;;;28.90;26.90;;;10.60;71.40;;;;;;5022837;28;20227;-80
2021/05/31 04:51:04;;;;;;;29.80;27.63;;;10.80;71.10;;;;;;5019502;28;20197;-75
2021/05/31 04:53:31;;;;;;;28.35;26.40;;;10.90;71.10;;;;;;5023526;28;20247;-78
2021/05/31 04:56:00;;;;;;;28.85;27.05;;;10.90;71.00;;;;;;5014728;28;20340;-76
2021/05/31 04:58:27;;;;;;;27.98;26.27;;;11.10;70.30;;;;;;5018141;28;20197;-79
2021/05/31 05:00:53;;;;;;;32.65;30.75;;;11.10;70.10;;;;;;5018253;28;20317;-75
2021/05/31 05:03:20;;;;;;;30.40;28.60;;;11.20;69.90;;;;;;5021374;28;20270;-78
2021/05/31 05:05:47;;;;;;;31.88;29.88;;;11.30;69.50;;;;;;5028334;28;20260;-82
2021/05/31 05:08:16;;;;;;;29.30;27.50;;;11.40;69.50;;;;;;5030610;28;20706;-81
2021/05/31 05:10:42;;;;;;;34.03;32.03;;;11.40;69.20;;;;;;5027847;28;20287;-80
2021/05/31 05:13:12;;;;;;;30.13;28.27;;;11.70;68.90;;;;;;5029657;28;20225;-80
2021/05/31 05:15:39;;;;;;;30.03;28.03;;;11.70;68.40;;;;;;5024348;28;20216;-81
2021/05/31 05:18:06;;;;;;;29.77;27.87;;;11.80;68.60;;;;;;5027705;28;20553;-77
2021/05/31 05:20:34;;;;;;;28.47;26.80;;;11.90;68.00;;;;;;5022039;28;20457;-77
2021/05/31 05:23:01;;;;;;;30.93;29.00;;;11.90;67.70;;;;;;5022366;28;20578;-74
2021/05/31 05:25:30;;;;;;;29.70;27.93;;;12.00;67.60;;;;;;5019599;28;20464;-77
2021/05/31 05:27:57;;;;;;;28.73;27.07;;;12.10;67.70;;;;;;5011792;28;20514;-76
2021/05/31 05:30:25;;;;;;;30.83;28.83;;;12.30;67.30;;;;;;5022448;28;20554;-77
2021/05/31 05:32:59;;;;;;;28.57;26.87;;;12.50;66.80;;;;;;5023523;28;20505;-77
2021/05/31 05:35:28;;;;;;;30.53;28.67;;;12.70;66.50;;;;;;5014431;28;20906;-80
2021/05/31 05:38:13;;;;;;;29.20;27.30;;;12.60;66.20;;;;;;5024523;28;20456;-76
2021/05/31 05:43:38;;;;;;;28.70;26.90;;;12.90;66.10;;;;;;5029283;28;20638;-80
2021/05/31 05:46:22;;;;;;;30.57;28.77;;;13.00;65.30;;;;;;5023050;28;20520;-73
2021/05/31 05:48:50;;;;;;;33.00;31.10;;;13.10;64.70;;;;;;5024309;28;20516;-76
2021/05/31 05:51:17;;;;;;;29.90;28.20;;;13.30;64.50;;;;;;5012559;28;20493;-76
2021/05/31 05:53:47;;;;;;;29.17;27.37;;;13.30;63.30;;;;;;5007675;28;21049;-76
2021/05/31 05:56:16;;;;;;;30.53;28.20;;;13.30;63.70;;;;;;5015741;28;20547;-77
2021/05/31 05:58:44;;;;;;;30.53;28.63;;;13.50;62.60;;;;;;5021610;28;20459;-76
2021/05/31 06:01:11;;;;;;;30.30;28.20;;;13.70;61.80;;;;;;5022907;28;20459;-77
2021/05/31 06:03:38;;;;;;;30.80;28.90;;;13.80;61.50;;;;;;5023936;28;21025;-77
2021/05/31 06:06:06;;;;;;;29.33;27.60;;;13.90;61.50;;;;;;5021902;28;20857;-77
2021/05/31 06:08:32;;;;;;;28.93;27.23;;;14.10;60.40;;;;;;5023887;28;21043;-76
2021/05/31 06:11:00;;;;;;;32.03;29.93;;;14.20;59.60;;;;;;5021792;28;20469;-76
2021/05/31 06:13:29;;;;;;;29.97;27.70;;;14.30;59.80;;;;;;5022424;28;20487;-76
2021/05/31 06:15:59;;;;;;;29.43;27.50;;;14.30;60.10;;;;;;5020589;28;20461;-77
2021/05/31 06:18:27;;;;;;;28.70;26.90;;;14.50;59.90;;;;;;5019451;28;20463;-77
2021/05/31 06:20:54;;;;;;;31.30;29.10;;;14.60;59.10;;;;;;5022958;28;20474;-77
2021/05/31 06:23:21;;;;;;;30.40;28.53;;;14.60;59.20;;;;;;5028915;28;20543;-87
2021/05/31 06:25:47;;;;;;;31.30;29.37;;;14.60;59.10;;;;;;5025979;28;21104;-84
2021/05/31 06:28:15;;;;;;;29.27;27.57;;;14.50;59.40;;;;;;5031677;28;20805;-86
2021/05/31 06:30:43;;;;;;;30.90;28.90;;;14.50;59.80;;;;;;5021370;28;20464;-85
2021/05/31 06:33:13;;;;;;;30.57;28.67;;;14.60;59.10;;;;;;5028348;28;20525;-84
2021/05/31 06:35:40;;;;;;;30.47;28.20;;;14.80;58.80;;;;;;5020221;28;20815;-87
2021/05/31 06:38:07;;;;;;;31.23;29.23;;;14.80;58.40;;;;;;5026489;28;20551;-86
2021/05/31 06:40:33;;;;;;;30.63;28.37;;;14.90;58.20;;;;;;5019130;28;20456;-86
2021/05/31 06:43:00;;;;;;;30.80;28.90;;;14.90;58.60;;;;;;5028811;28;20853;-85
2021/05/31 06:45:29;;;;;;;30.70;28.70;;;15.00;57.80;;;;;;5019255;28;20467;-83
2021/05/31 06:47:59;;;;;;;30.40;28.50;;;15.10;57.50;;;;;;5031753;28;20518;-81
2021/05/31 06:50:27;;;;;;;29.77;27.97;;;15.20;57.20;;;;;;5031868;28;20476;-83
2021/05/31 06:52:57;;;;;;;29.90;27.90;;;15.30;57.00;;;;;;5033917;28;20628;-84
2021/05/31 06:55:26;;;;;;;33.90;31.43;;;15.40;56.60;;;;;;5031992;28;20480;-87
2021/05/31 06:57:53;;;;;;;30.03;28.23;;;15.40;56.70;;;;;;5033030;28;20542;-86
2021/05/31 07:00:22;;;;;;;29.83;27.80;;;15.40;56.50;;;;;;5032476;28;20842;-86
2021/05/31 07:02:49;;;;;;;30.10;28.20;;;15.40;56.50;;;;;;5030680;28;20574;-86
2021/05/31 07:05:17;;;;;;;28.63;27.03;;;15.50;56.10;;;;;;5032153;28;20513;-87
2021/05/31 07:07:44;;;;;;;29.77;27.73;;;15.60;55.90;;;;;;5027095;28;20491;-86
2021/05/31 07:10:13;;;;;;;28.63;27.03;;;15.50;56.10;;;;;;5032233;28;20484;-87
2021/05/31 07:12:41;;;;;;;29.50;27.40;;;15.40;56.40;;;;;;5027450;28;20574;-84
2021/05/31 07:15:11;;;;;;;29.80;28.00;;;15.50;56.40;;;;;;5025300;28;20498;-84
2021/05/31 07:17:40;;;;;;;28.80;26.90;;;15.50;56.40;;;;;;5026138;28;20483;-85
2021/05/31 07:20:08;;;;;;;27.57;25.87;;;15.70;55.30;;;;;;5031006;28;20463;-86
2021/05/31 07:22:37;;;;;;;28.30;26.70;;;15.80;55.10;;;;;;5030849;28;20537;-86
2021/05/31 07:25:04;;;;;;;27.40;25.90;;;15.90;54.30;;;;;;5030451;28;20448;-83
2021/05/31 07:27:30;;;;;;;27.70;26.20;;;16.00;53.90;;;;;;5027710;28;20436;-83
2021/05/31 07:29:57;;;;;;;30.87;29.03;;;16.10;51.70;;;;;;5043170;28;20480;-83
2021/05/31 07:32:23;;;;;;;27.37;25.70;;;16.10;51.20;;;;;;5017253;28;20494;-84
2021/05/31 07:34:50;;;;;;;28.43;26.53;;;16.10;51.50;;;;;;5023225;28;20566;-83
2021/05/31 07:37:17;;;;;;;31.70;28.80;;;16.10;51.80;;;;;;5024353;28;20448;-84
2021/05/31 07:39:44;;;;;;;29.77;27.40;;;16.30;51.50;;;;;;5010907;28;21249;-84
2021/05/31 07:42:11;;;;;;;28.07;26.40;;;16.40;49.30;;;;;;5025356;28;20594;-84
2021/05/31 07:44:38;;;;;;;30.10;28.10;;;16.30;49.70;;;;;;5028549;28;20452;-85
2021/05/31 07:47:05;;;;;;;28.70;27.10;;;16.40;49.70;;;;;;5025129;28;20488;-87
2021/05/31 07:49:32;;;;;;;30.10;28.30;;;16.40;47.90;;;;;;5028960;28;20660;-82
2021/05/31 07:52:07;;;;;;;27.27;25.77;;;16.50;48.10;;;;;;5024092;28;20484;-83
2021/05/31 07:54:34;;;;;;;27.80;26.20;;;16.60;48.00;;;;;;5014792;28;20463;-80
2021/05/31 07:57:02;;;;;;;27.60;26.00;;;16.90;47.90;;;;;;5027258;28;20586;-81
2021/05/31 07:59:28;;;;;;;27.40;25.80;;;17.10;47.90;;;;;;5031056;28;20475;-81
2021/05/31 08:01:55;;;;;;;27.33;25.73;;;17.30;47.10;;;;;;5014107;28;20532;-81
2021/05/31 08:04:21;;;;;;;27.90;26.20;;;17.20;48.00;;;;;;5022553;28;20463;-81
2021/05/31 08:06:47;;;;;;;27.60;25.90;;;17.20;47.70;;;;;;5028611;28;20488;-80
2021/05/31 08:09:14;;;;;;;25.97;24.40;;;17.20;46.80;;;;;;5032682;28;20575;-81
2021/05/31 08:11:40;;;;;;;28.00;26.30;;;17.40;47.20;;;;;;5034812;28;20568;-81
2021/05/31 08:14:08;;;;;;;28.23;26.47;;;17.60;47.40;;;;;;5031023;28;21007;-80
2021/05/31 08:16:35;;;;;;;27.77;25.70;;;17.70;47.50;;;;;;5027395;28;20472;-80
2021/05/31 08:19:01;;;;;;;27.10;25.50;;;17.90;47.60;;;;;;5033448;28;20476;-87
2021/05/31 08:21:31;;;;;;;28.87;27.07;;;18.00;47.40;;;;;;5015783;28;20457;-82
2021/05/31 08:23:57;;;;;;;27.23;25.57;;;18.00;46.60;;;;;;5021249;28;20551;-79
2021/05/31 08:26:23;;;;;;;26.83;25.20;;;18.10;46.70;;;;;;5020113;28;20614;-79
2021/05/31 08:28:50;;;;;;;28.53;26.43;;;18.30;45.30;;;;;;5028808;28;20536;-78
2021/05/31 08:31:18;;;;;;;27.13;25.53;;;18.40;43.90;;;;;;5023601;28;21063;-78
2021/05/31 08:33:45;;;;;;;27.77;26.07;;;18.50;44.60;;;;;;5024235;28;21214;-81
2021/05/31 08:36:11;;;;;;;26.77;24.83;;;18.30;45.20;;;;;;5014735;28;20579;-75
2021/05/31 08:38:37;;;;;;;29.70;27.37;;;18.30;45.10;;;;;;5006830;28;20462;-79
2021/05/31 08:41:04;;;;;;;27.50;26.00;;;18.20;46.00;;;;;;5014502;28;20875;-78
2021/05/31 08:43:31;;;;;;;28.57;26.63;;;18.10;46.70;;;;;;5041524;28;20483;-79
2021/05/31 08:45:57;;;;;;;26.27;24.77;;;18.30;46.40;;;;;;5023909;28;20540;-78
2021/05/31 08:48:25;;;;;;;27.60;25.70;;;18.30;45.90;;;;;;5027600;28;20481;-82
2021/05/31 08:50:52;;;;;;;28.13;26.60;;;18.30;44.30;;;;;;5029718;28;20456;-78
2021/05/31 08:53:20;;;;;;;27.60;26.10;;;18.10;43.60;;;;;;5026661;28;20478;-79
2021/05/31 08:55:48;;;;;;;27.67;25.97;;;18.10;44.50;;;;;;5023218;28;20467;-80
2021/05/31 08:58:14;;;;;;;25.97;24.67;;;18.20;44.20;;;;;;5021044;28;20461;-78
2021/05/31 09:00:41;;;;;;;27.83;26.17;;;18.10;43.80;;;;;;5021795;28;20456;-79
2021/05/31 09:03:09;;;;;;;27.73;26.23;;;18.10;43.40;;;;;;5032387;28;20483;-83
2021/05/31 09:05:39;;;;;;;30.27;28.47;;;18.00;43.40;;;;;;5021774;28;20686;-83
2021/05/31 09:08:08;;;;;;;27.53;25.93;;;18.20;43.70;;;;;;5014763;28;20457;-80
2021/05/31 09:10:45;;;;;;;26.90;25.40;;;18.20;43.40;;;;;;5028255;28;20527;-85
2021/05/31 09:13:14;;;;;;;29.17;27.27;;;18.30;43.70;;;;;;5012030;28;20472;-78
2021/05/31 09:15:44;;;;;;;28.43;26.67;;;18.30;43.80;;;;;;5031854;28;21289;-79
2021/05/31 09:18:11;;;;;;;28.03;26.53;;;18.30;43.80;;;;;;5031388;28;20464;-80
2021/05/31 09:20:39;;;;;;;27.43;25.93;;;18.40;44.20;;;;;;5032490;28;20455;-81
2021/05/31 09:23:05;;;;;;;27.20;25.67;;;18.40;43.50;;;;;;5033950;28;20472;-79
2021/05/31 09:25:34;;;;;;;27.00;25.60;;;18.50;43.50;;;;;;5022932;28;21783;-78
2021/05/31 09:28:03;;;;;;;27.00;25.40;;;18.70;43.50;;;;;;5022396;28;20464;-80
2021/05/31 09:30:38;;;;;;;27.97;26.40;;;18.60;43.50;;;;;;5022396;28;20909;-79
2021/05/31 09:33:08;;;;;;;29.13;26.40;;;18.50;41.90;;;;;;5018179;28;20484;-78
2021/05/31 09:35:38;;;;;;;26.90;25.50;;;18.50;42.70;;;;;;5021089;28;20466;-79
2021/05/31 09:38:06;;;;;;;27.00;25.50;;;18.40;42.40;;;;;;5025579;28;20574;-78
2021/05/31 09:40:32;;;;;;;29.43;26.87;;;18.30;43.30;;;;;;5019453;28;20463;-79
2021/05/31 09:43:01;;;;;;;28.10;26.20;;;18.40;43.40;;;;;;5032657;28;20517;-78
2021/05/31 09:45:29;;;;;;;26.60;25.20;;;18.60;43.30;;;;;;5018018;28;20476;-78
2021/05/31 09:47:59;;;;;;;26.57;25.13;;;18.50;43.00;;;;;;5022383;28;20486;-78
2021/05/31 09:50:28;;;;;;;26.50;25.10;;;18.40;43.50;;;;;;5022275;28;20478;-78
2021/05/31 09:53:14;;;;;;;27.90;26.17;;;18.30;44.30;;;;;;5011605;28;20536;-78
2021/05/31 09:55:44;;;;;;;28.50;26.83;;;18.50;43.90;;;;;;5017125;28;20464;-77
2021/05/31 09:58:11;;;;;;;27.73;26.07;;;18.50;43.80;;;;;;5013291;28;20448;-77
2021/05/31 10:00:39;;;;;;;28.00;26.40;;;18.60;44.00;;;;;;5013192;28;20473;-77
2021/05/31 10:03:25;;;;;;;28.10;26.50;;;18.60;43.50;;;;;;5013875;28;20475;-77
2021/05/31 10:06:02;;;;;;;27.13;25.73;;;18.80;43.30;;;;;;5009842;28;20877;-77
2021/05/31 10:08:42;;;;;;;27.27;25.67;;;19.00;42.90;;;;;;5010219;28;20566;-77
2021/05/31 10:11:09;;;;;;;27.47;25.97;;;19.00;42.80;;;;;;5029982;28;20471;-77
2021/05/31 10:13:40;;;;;;;28.40;26.90;;;19.00;42.10;;;;;;5025215;28;21100;-77
2021/05/31 10:16:07;;;;;;;27.97;26.47;;;19.00;42.80;;;;;;5017052;28;20519;-77
2021/05/31 10:18:39;;;;;;;27.67;26.07;;;18.90;42.40;;;;;;5022647;28;20455;-78
2021/05/31 10:21:06;;;;;;;28.87;27.17;;;18.90;42.90;;;;;;5028655;28;20881;-77
2021/05/31 10:23:37;;;;;;;29.03;27.10;;;18.90;43.30;;;;;;5032799;28;20479;-78
2021/05/31 10:26:09;;;;;;;27.13;25.60;;;19.00;42.20;;;;;;5029856;28;20527;-81
2021/05/31 10:28:39;;;;;;;28.37;26.57;;;19.00;41.50;;;;;;5033623;28;20472;-80
2021/05/31 10:31:10;;;;;;;26.10;24.70;;;19.00;42.70;;;;;;5033442;28;20488;-81
2021/05/31 10:33:38;;;;;;;27.60;26.00;;;19.00;43.00;;;;;;5030338;28;20504;-79
2021/05/31 10:36:15;;;;;;;27.40;25.80;;;19.00;42.30;;;;;;5026587;28;20533;-80
2021/05/31 10:38:46;;;;;;;26.20;24.60;;;19.00;43.00;;;;;;5029109;28;20454;-79
2021/05/31 10:41:15;;;;;;;27.47;25.90;;;19.30;42.90;;;;;;5028514;28;20451;-78
2021/05/31 10:43:50;;;;;;;28.50;26.80;;;19.40;43.10;;;;;;5031475;28;20494;-80
2021/05/31 10:46:19;;;;;;;27.73;25.93;;;19.70;42.20;;;;;;5009416;28;21089;-79
2021/05/31 10:48:48;;;;;;;26.67;25.07;;;19.60;42.60;;;;;;5027468;28;20479;-78
2021/05/31 10:51:18;;;;;;;26.50;25.10;;;19.60;42.50;;;;;;5025531;28;20462;-80
2021/05/31 10:53:46;;;;;;;28.90;27.10;;;19.60;42.10;;;;;;5035091;28;20542;-80
2021/05/31 10:56:25;;;;;;;27.53;25.93;;;19.80;42.00;;;;;;5023556;28;20462;-78
2021/05/31 10:58:53;;;;;;;27.60;26.00;;;19.90;42.00;;;;;;5026424;28;20463;-79
2021/05/31 11:01:22;;;;;;;28.43;26.83;;;19.80;42.60;;;;;;5027090;28;20484;-81
2021/05/31 11:03:52;;;;;;;29.03;27.37;;;19.70;42.00;;;;;;5025497;28;20526;-80
2021/05/31 11:06:21;;;;;;;28.13;26.53;;;19.60;42.90;;;;;;5014558;28;20456;-80
2021/05/31 11:08:54;;;;;;;27.37;25.70;;;19.80;42.30;;;;;;5025754;28;20989;-79
2021/05/31 11:11:25;;;;;;;27.47;25.87;;;19.60;42.80;;;;;;5028710;28;20460;-79
2021/05/31 11:13:53;;;;;;;28.10;26.50;;;19.50;43.10;;;;;;5028144;28;20688;-79
2021/05/31 11:16:20;;;;;;;27.10;25.60;;;19.70;42.80;;;;;;5025789;28;20945;-79
2021/05/31 11:18:47;;;;;;;27.93;26.33;;;19.60;43.50;;;;;;5022996;28;20541;-79
2021/05/31 11:21:29;;;;;;;29.07;27.37;;;19.70;42.90;;;;;;5025473;28;20551;-78
2021/05/31 11:24:03;;;;;;;29.87;28.10;;;19.80;42.20;;;;;;5027261;28;20464;-79
2021/05/31 11:26:31;;;;;;;26.90;25.40;;;19.70;43.00;;;;;;5021004;28;20546;-80
2021/05/31 11:28:58;;;;;;;28.20;26.60;;;19.80;43.00;;;;;;5027299;28;20486;-79
2021/05/31 11:31:26;;;;;;;26.97;25.47;;;19.90;42.10;;;;;;5028589;28;20551;-79
2021/05/31 11:33:54;;;;;;;27.87;26.07;;;20.00;42.50;;;;;;5027711;28;20480;-77
2021/05/31 11:36:28;;;;;;;27.70;26.20;;;20.10;41.90;;;;;;5026026;28;20467;-80
2021/05/31 11:38:55;;;;;;;26.97;25.57;;;20.10;41.30;;;;;;5024771;28;20830;-77
2021/05/31 11:41:32;;;;;;;29.53;27.83;;;20.10;41.20;;;;;;5024418;28;20472;-76
2021/05/31 11:43:59;;;;;;;28.93;27.03;;;20.10;40.60;;;;;;5045469;28;20461;-78
2021/05/31 11:46:26;;;;;;;27.37;25.87;;;20.10;41.30;;;;;;5020653;28;20464;-82
2021/05/31 11:48:52;;;;;;;27.57;25.87;;;20.10;41.80;;;;;;5032710;28;20830;-80
2021/05/31 11:51:18;;;;;;;27.40;25.80;;;20.20;41.00;;;;;;5028914;28;20460;-81
2021/05/31 11:53:45;;;;;;;27.47;25.97;;;20.30;40.50;;;;;;5032162;28;20479;-79
2021/05/31 11:56:13;;;;;;;26.33;24.80;;;20.30;39.30;;;;;;5026551;28;20465;-82
2021/05/31 11:58:44;;;;;;;28.30;26.70;;;20.30;39.90;;;;;;5033397;28;20447;-79
2021/05/31 12:01:11;;;;;;;27.63;26.13;;;20.40;40.50;;;;;;5033074;28;20724;-82
2021/05/31 12:03:39;;;;;;;29.90;28.20;;;20.60;39.40;;;;;;5033013;28;20538;-81
2021/05/31 12:06:13;;;;;;;26.00;24.60;;;20.80;38.90;;;;;;5022218;28;20466;-78
2021/05/31 12:08:39;;;;;;;26.50;25.00;;;21.00;39.20;;;;;;5025708;28;21023;-77
2021/05/31 12:11:06;;;;;;;28.63;26.87;;;21.00;39.20;;;;;;5020305;28;20468;-77
2021/05/31 12:13:34;;;;;;;27.30;25.70;;;20.90;40.10;;;;;;5022030;28;20487;-78
2021/05/31 12:16:13;;;;;;;28.50;26.90;;;21.00;40.60;;;;;;5026606;28;20474;-79
2021/05/31 12:18:40;;;;;;;27.17;25.60;;;21.10;40.60;;;;;;5030103;28;20538;-80
2021/05/31 12:21:06;;;;;;;26.90;25.30;;;21.10;39.40;;;;;;5026555;28;20464;-78
2021/05/31 12:23:34;;;;;;;27.90;26.10;;;21.10;39.20;;;;;;5029434;28;20482;-79
2021/05/31 12:26:03;;;;;;;28.70;27.10;;;20.90;39.80;;;;;;5028419;28;20861;-78
2021/05/31 12:28:31;;;;;;;26.67;25.17;;;20.90;40.20;;;;;;5028277;28;20966;-82
2021/05/31 12:30:57;;;;;;;28.20;26.60;;;21.00;39.20;;;;;;5033204;28;20518;-82
2021/05/31 12:33:26;;;;;;;29.57;27.70;;;20.90;39.40;;;;;;5032733;28;20557;-83
2021/05/31 12:35:52;;;;;;;28.20;26.60;;;21.00;38.60;;;;;;5024377;28;20957;-77
2021/05/31 12:38:19;;;;;;;28.67;27.07;;;21.20;38.10;;;;;;5026297;28;20475;-75
2021/05/31 12:40:46;;;;;;;27.40;25.87;;;21.40;36.90;;;;;;5024718;28;20535;-75